Time;durP1;ratioP1;P1;durP2;ratioP2;P2;SDS_P1;SDS_P2;PMS_P1;PMS_P2;Temp;Humidity;BMP_temperature;BMP_pressure;BME280_temperature;BME280_humidity;BME280_pressure;Samples;Min_cycle;Max_cycle;Signal;HPM_P1;HPM_P2
2022/02/25 00:02:09;;;;;;;;;;;2.40;99.90;;;;;;5016603;28;19921;-86
2022/02/25 00:04:35;;;;;;;;;;;2.40;99.90;;;;;;5016076;28;19917;-86
2022/02/25 00:07:00;;;;;;;;;;;2.40;99.90;;;;;;5016058;28;19963;-88
2022/02/25 00:09:26;;;;;;;;;;;2.40;99.90;;;;;;5015893;28;19917;-87
2022/02/25 00:11:52;;;;;;;;;;;2.40;99.90;;;;;;5016017;28;19944;-88
2022/02/25 00:14:17;;;;;;;;;;;2.40;99.90;;;;;;5014829;28;20407;-89
2022/02/25 00:16:43;;;;;;;;;;;2.40;99.90;;;;;;5010382;28;19983;-88
2022/02/25 00:19:09;;;;;;;;;;;2.30;99.90;;;;;;5023668;28;20448;-88
2022/02/25 00:21:34;;;;;;;;;;;2.30;99.90;;;;;;5026068;28;20311;-85
2022/02/25 00:24:00;;;;;;;;;;;2.30;99.90;;;;;;5012428;28;19917;-89
2022/02/25 00:26:25;;;;;;;;;;;2.30;99.90;;;;;;4979788;28;19947;-87
2022/02/25 00:28:51;;;;;;;;;;;2.30;99.90;;;;;;4979635;28;20360;-86
2022/02/25 00:31:17;;;;;;;;;;;2.30;99.90;;;;;;5000877;28;19917;-85
2022/02/25 00:33:43;;;;;;;;;;;2.30;99.90;;;;;;5014789;28;19917;-85
2022/02/25 00:36:09;;;;;;;;;;;2.20;99.90;;;;;;4998940;28;19921;-88
2022/02/25 00:38:34;;;;;;;;;;;2.20;99.90;;;;;;5014846;28;19913;-89
2022/02/25 00:41:00;;;;;;;;;;;2.20;99.90;;;;;;5017602;28;20060;-85
2022/02/25 00:43:25;;;;;;;;;;;2.10;99.90;;;;;;5012260;28;19953;-86
2022/02/25 00:45:51;;;;;;;;;;;2.10;99.90;;;;;;5028369;28;19921;-86
2022/02/25 00:48:17;;;;;;;;;;;2.10;99.90;;;;;;5017191;28;19962;-89
2022/02/25 00:50:42;;;;;;;;;;;2.00;99.90;;;;;;5021508;28;19953;-88
2022/02/25 00:53:08;;;;;;;;;;;1.90;99.90;;;;;;4998813;28;19952;-85
2022/02/25 00:55:33;;;;;;;;;;;1.90;99.90;;;;;;4998465;28;19920;-88
2022/02/25 00:57:59;;;;;;;;;;;1.90;99.90;;;;;;5014899;28;19968;-89
2022/02/25 01:00:25;;;;;;;;;;;1.90;99.90;;;;;;5015143;28;19967;-87
2022/02/25 01:02:51;;;;;;;;;;;1.90;99.90;;;;;;5031573;28;19913;-86
2022/02/25 01:05:16;;;;;;;;;;;1.90;99.90;;;;;;5019897;28;20294;-88
2022/02/25 01:07:43;;;;;;;;;;;1.90;99.90;;;;;;5004918;28;19992;-88
2022/02/25 01:10:09;;;;;;;;;;;1.90;99.90;;;;;;5016029;28;19913;-87
2022/02/25 01:12:36;;;;;;;;;;;1.90;99.90;;;;;;5002195;28;20012;-87
2022/02/25 01:15:01;;;;;;;;;;;1.90;99.90;;;;;;5011561;28;19913;-89
2022/02/25 01:17:29;;;;;;;;;;;1.80;99.90;;;;;;5015036;28;19921;-88
2022/02/25 01:19:58;;;;;;;;;;;1.80;99.90;;;;;;5023077;28;19917;-88
2022/02/25 01:22:24;;;;;;;;;;;1.80;99.90;;;;;;5031269;28;19951;-88
2022/02/25 01:24:50;;;;;;;;;;;1.80;99.90;;;;;;5014568;28;20613;-88
2022/02/25 01:27:15;;;;;;;;;;;1.70;99.90;;;;;;5014083;28;20008;-88
2022/02/25 01:29:41;;;;;;;;;;;1.70;99.90;;;;;;5028698;28;19920;-87
2022/02/25 01:32:07;;;;;;;;;;;1.80;99.90;;;;;;5003118;28;19990;-88
2022/02/25 01:34:33;;;;;;;;;;;1.70;99.90;;;;;;4998349;28;19925;-90
2022/02/25 01:36:59;;;;;;;;;;;1.80;99.90;;;;;;5022398;28;19918;-88
2022/02/25 01:39:25;;;;;;;;;;;1.80;99.90;;;;;;5009253;28;20371;-88
2022/02/25 01:41:50;;;;;;;;;;;1.70;99.90;;;;;;5040419;28;20367;-88
2022/02/25 01:44:17;;;;;;;;;;;1.70;99.90;;;;;;5011323;28;20350;-89
2022/02/25 01:46:47;;;;;;;;;;;1.70;99.90;;;;;;5016366;28;19921;-88
2022/02/25 01:49:13;;;;;;;;;;;1.70;99.90;;;;;;5014068;28;19917;-88
2022/02/25 01:51:39;;;;;;;;;;;1.70;99.90;;;;;;5030931;28;19917;-88
2022/02/25 01:54:05;;;;;;;;;;;1.80;99.90;;;;;;5014937;28;19973;-89
2022/02/25 01:56:31;;;;;;;;;;;1.70;99.90;;;;;;5019094;28;20004;-90
2022/02/25 01:58:57;;;;;;;;;;;1.70;99.90;;;;;;5032846;28;20353;-89
2022/02/25 02:01:23;;;;;;;;;;;1.70;99.90;;;;;;5030615;28;19913;-89
2022/02/25 02:03:50;;;;;;;;;;;1.80;99.90;;;;;;5014973;28;19913;-89
2022/02/25 02:06:16;;;;;;;;;;;1.80;99.90;;;;;;5014267;28;19917;-89
2022/02/25 02:08:42;;;;;;;;;;;1.70;99.90;;;;;;5013907;28;19913;-89
2022/02/25 02:11:07;;;;;;;;;;;1.80;99.90;;;;;;5014345;28;19913;-89
2022/02/25 02:13:33;;;;;;;;;;;1.70;99.90;;;;;;5011486;28;19922;-90
2022/02/25 02:15:58;;;;;;;;;;;1.70;99.90;;;;;;5024535;28;19913;-90
2022/02/25 02:18:24;;;;;;;;;;;1.70;99.90;;;;;;5026455;28;19959;-90
2022/02/25 02:20:50;;;;;;;;;;;1.80;99.90;;;;;;5018229;28;19928;-89
2022/02/25 02:23:15;;;;;;;;;;;1.80;99.90;;;;;;5010685;28;19910;-89
2022/02/25 02:25:41;;;;;;;;;;;1.80;99.90;;;;;;5024798;28;20371;-89
2022/02/25 02:28:20;;;;;;;;;;;1.80;99.90;;;;;;5010490;28;19967;-89
2022/02/25 02:30:46;;;;;;;;;;;1.80;99.90;;;;;;5016205;28;20003;-89
2022/02/25 02:33:12;;;;;;;;;;;1.80;99.90;;;;;;5014628;28;19913;-89
2022/02/25 02:35:38;;;;;;;;;;;1.90;99.90;;;;;;5013540;28;19917;-89
2022/02/25 02:38:04;;;;;;;;;;;1.90;99.90;;;;;;5013790;28;19916;-89
2022/02/25 02:40:30;;;;;;;;;;;1.80;99.90;;;;;;5014444;28;19962;-89
2022/02/25 02:42:56;;;;;;;;;;;1.80;99.90;;;;;;5009812;28;19917;-90
2022/02/25 02:45:22;;;;;;;;;;;1.90;99.90;;;;;;5016450;28;20323;-90
2022/02/25 02:47:47;;;;;;;;;;;1.90;99.90;;;;;;5017228;28;19919;-90
2022/02/25 02:50:13;;;;;;;;;;;1.90;99.90;;;;;;5016368;28;19935;-90
2022/02/25 02:52:39;;;;;;;;;;;1.90;99.90;;;;;;5018014;28;19917;-89
2022/02/25 02:55:05;;;;;;;;;;;1.80;99.90;;;;;;5027191;28;20007;-89
2022/02/25 02:57:31;;;;;;;;;;;1.80;99.90;;;;;;5016833;28;20442;-90
2022/02/25 02:59:57;;;;;;;;;;;1.80;99.90;;;;;;5019023;28;19973;-90
2022/02/25 03:02:23;;;;;;;;;;;1.80;99.90;;;;;;5016743;28;19929;-90
2022/02/25 03:04:49;;;;;;;;;;;1.80;99.90;;;;;;5016938;28;20263;-90
2022/02/25 03:07:15;;;;;;;;;;;1.90;99.90;;;;;;5017351;28;20012;-89
2022/02/25 03:09:40;;;;;;;;;;;1.90;99.90;;;;;;5017507;28;19960;-88
2022/02/25 03:12:07;;;;;;;;;;;1.90;99.90;;;;;;4997970;28;20372;-89
2022/02/25 03:14:34;;;;;;;;;;;1.80;99.90;;;;;;5014335;28;19917;-89
2022/02/25 03:16:59;;;;;;;;;;;1.70;99.90;;;;;;5026936;28;19913;-88
2022/02/25 03:19:25;;;;;;;;;;;1.70;99.90;;;;;;5021062;28;19986;-90
2022/02/25 03:21:51;;;;;;;;;;;1.70;99.90;;;;;;5031251;28;19980;-89
2022/02/25 03:24:16;;;;;;;;;;;1.70;99.90;;;;;;5017215;28;20051;-89
2022/02/25 03:26:42;;;;;;;;;;;1.70;99.90;;;;;;5016967;28;20249;-90
2022/02/25 03:29:08;;;;;;;;;;;1.70;99.90;;;;;;5015760;28;20051;-90
2022/02/25 03:31:33;;;;;;;;;;;1.70;99.90;;;;;;5017962;28;19940;-89
2022/02/25 03:33:59;;;;;;;;;;;1.60;99.90;;;;;;5018352;28;19917;-89
2022/02/25 03:36:25;;;;;;;;;;;1.60;99.90;;;;;;5016728;28;19940;-90
2022/02/25 03:38:50;;;;;;;;;;;1.60;99.90;;;;;;5017109;28;19920;-89
2022/02/25 03:41:16;;;;;;;;;;;1.50;99.90;;;;;;5013685;28;20394;-90
2022/02/25 03:43:41;;;;;;;;;;;1.50;99.90;;;;;;5021119;28;19983;-89
2022/02/25 03:46:07;;;;;;;;;;;1.50;99.90;;;;;;5016565;28;19924;-89
2022/02/25 03:48:33;;;;;;;;;;;1.50;99.90;;;;;;5016802;28;20299;-89
2022/02/25 03:50:58;;;;;;;;;;;1.40;99.90;;;;;;5016211;28;19920;-90
2022/02/25 03:53:24;;;;;;;;;;;1.40;99.90;;;;;;5011281;28;19963;-89
2022/02/25 03:55:50;;;;;;;;;;;1.40;99.90;;;;;;5019739;28;19912;-89
2022/02/25 03:58:15;;;;;;;;;;;1.40;99.90;;;;;;5031147;28;19924;-88
2022/02/25 04:00:41;;;;;;;;;;;1.30;99.90;;;;;;5014213;28;20287;-88
2022/02/25 04:03:07;;;;;;;;;;;1.30;99.90;;;;;;4996764;28;20364;-89
2022/02/25 04:05:32;;;;;;;;;;;1.30;99.90;;;;;;4996621;28;19918;-87
2022/02/25 04:07:58;;;;;;;;;;;1.30;99.90;;;;;;5013849;28;19913;-88
2022/02/25 04:10:24;;;;;;;;;;;1.30;99.90;;;;;;5013782;28;19917;-88
2022/02/25 04:12:49;;;;;;;;;;;1.20;99.90;;;;;;5016301;28;19913;-88
2022/02/25 04:15:16;;;;;;;;;;;1.20;99.90;;;;;;4999603;28;20298;-89
2022/02/25 04:17:42;;;;;;;;;;;1.20;99.90;;;;;;4999616;28;19918;-88
2022/02/25 04:20:08;;;;;;;;;;;1.20;99.90;;;;;;5015885;28;20341;-89
2022/02/25 04:22:34;;;;;;;;;;;1.20;99.90;;;;;;5015900;28;19917;-87
2022/02/25 04:24:59;;;;;;;;;;;1.20;99.90;;;;;;5014716;28;19921;-91
2022/02/25 04:27:25;;;;;;;;;;;1.10;99.90;;;;;;5023572;28;19923;-88
2022/02/25 04:29:50;;;;;;;;;;;1.10;99.90;;;;;;5023976;28;20019;-88
2022/02/25 04:32:16;;;;;;;;;;;1.10;99.90;;;;;;5028448;28;19924;-87
2022/02/25 04:34:42;;;;;;;;;;;1.10;99.90;;;;;;5020154;28;19917;-89
2022/02/25 04:37:07;;;;;;;;;;;1.00;99.90;;;;;;5015387;28;19913;-87
2022/02/25 04:39:33;;;;;;;;;;;1.00;99.90;;;;;;5012397;28;20026;-87
2022/02/25 04:41:59;;;;;;;;;;;1.00;99.90;;;;;;5030981;28;20272;-87
2022/02/25 04:44:26;;;;;;;;;;;1.00;99.90;;;;;;4999157;28;20008;-87
2022/02/25 04:47:12;;;;;;;;;;;1.00;99.90;;;;;;5030213;28;19999;-88
2022/02/25 04:49:38;;;;;;;;;;;1.00;99.90;;;;;;5015100;28;20311;-89
2022/02/25 04:52:04;;;;;;;;;;;1.00;99.90;;;;;;4999018;28;20016;-88
2022/02/25 04:54:29;;;;;;;;;;;0.90;99.90;;;;;;5000709;28;19921;-87
2022/02/25 04:56:55;;;;;;;;;;;0.90;99.90;;;;;;5022550;28;19917;-87
2022/02/25 04:59:21;;;;;;;;;;;0.90;99.90;;;;;;5009952;28;19917;-88
2022/02/25 05:01:46;;;;;;;;;;;0.90;99.90;;;;;;5017749;28;19913;-88
2022/02/25 05:04:12;;;;;;;;;;;0.80;99.90;;;;;;5015506;28;19963;-87
2022/02/25 05:06:39;;;;;;;;;;;0.80;99.90;;;;;;4998629;28;19956;-88
2022/02/25 05:09:05;;;;;;;;;;;0.80;99.90;;;;;;5014836;28;19940;-87
2022/02/25 05:11:30;;;;;;;;;;;0.80;99.90;;;;;;4998727;28;19913;-87
2022/02/25 05:13:56;;;;;;;;;;;0.80;99.90;;;;;;5015052;28;19948;-88
2022/02/25 05:21:51;;;;;;;;;;;0.70;99.90;;;;;;5040671;28;19917;-87
2022/02/25 05:24:17;;;;;;;;;;;0.70;99.90;;;;;;5022406;28;20280;-87
2022/02/25 05:26:43;;;;;;;;;;;0.70;99.90;;;;;;5014577;28;19943;-87
2022/02/25 05:29:09;;;;;;;;;;;0.70;99.90;;;;;;5013687;28;19920;-87
2022/02/25 05:31:36;;;;;;;;;;;0.80;99.90;;;;;;5047779;28;20558;-87
2022/02/25 05:34:01;;;;;;;;;;;0.80;99.90;;;;;;5014913;28;19967;-87
2022/02/25 05:36:27;;;;;;;;;;;0.90;99.90;;;;;;5014422;28;19921;-86
2022/02/25 05:38:55;;;;;;;;;;;0.90;99.90;;;;;;5014429;28;19918;-87
2022/02/25 05:41:20;;;;;;;;;;;0.90;99.90;;;;;;5011482;28;19955;-87
2022/02/25 05:43:46;;;;;;;;;;;0.90;99.90;;;;;;5016657;28;19998;-88
2022/02/25 05:46:12;;;;;;;;;;;0.90;99.90;;;;;;4994680;28;20398;-87
2022/02/25 05:48:37;;;;;;;;;;;0.90;99.90;;;;;;5029334;28;19920;-87
2022/02/25 05:51:05;;;;;;;;;;;0.90;99.90;;;;;;5020403;28;20024;-89
2022/02/25 05:53:31;;;;;;;;;;;0.80;99.90;;;;;;5014395;28;19917;-88
2022/02/25 05:55:56;;;;;;;;;;;0.80;99.90;;;;;;5014042;28;20514;-86
2022/02/25 05:58:22;;;;;;;;;;;0.80;99.90;;;;;;5030617;28;19995;-86
2022/02/25 06:00:47;;;;;;;;;;;0.80;99.90;;;;;;5030625;28;19913;-87
2022/02/25 06:03:13;;;;;;;;;;;0.80;99.90;;;;;;5013034;28;20437;-88
2022/02/25 06:05:39;;;;;;;;;;;0.90;99.90;;;;;;5011773;28;20223;-90
2022/02/25 06:08:04;;;;;;;;;;;0.90;99.90;;;;;;5012425;28;19929;-87
2022/02/25 06:10:30;;;;;;;;;;;0.90;99.90;;;;;;5011261;28;20280;-87
2022/02/25 06:12:56;;;;;;;;;;;0.90;99.90;;;;;;5013996;28;19913;-85
2022/02/25 06:15:22;;;;;;;;;;;0.90;99.90;;;;;;4994131;28;19921;-85
2022/02/25 06:17:49;;;;;;;;;;;0.90;99.90;;;;;;5026289;28;20024;-85
2022/02/25 06:20:15;;;;;;;;;;;0.90;99.90;;;;;;5046664;28;19919;-85
2022/02/25 06:22:41;;;;;;;;;;;1.00;99.90;;;;;;5017827;28;20371;-88
2022/02/25 06:25:07;;;;;;;;;;;1.10;99.90;;;;;;5033571;28;20059;-86
2022/02/25 06:27:33;;;;;;;;;;;1.10;99.90;;;;;;5015777;28;19917;-85
2022/02/25 06:29:59;;;;;;;;;;;1.10;99.90;;;;;;5005197;28;19924;-85
2022/02/25 06:32:24;;;;;;;;;;;1.10;99.90;;;;;;5016056;28;19914;-84
2022/02/25 06:34:50;;;;;;;;;;;1.10;99.90;;;;;;5040350;28;19964;-85
2022/02/25 06:37:16;;;;;;;;;;;1.10;99.90;;;;;;5014949;28;19917;-86
2022/02/25 06:39:45;;;;;;;;;;;1.20;99.90;;;;;;4998291;28;19922;-83
2022/02/25 06:42:10;;;;;;;;;;;1.20;99.90;;;;;;5011556;28;19923;-87
2022/02/25 06:44:36;;;;;;;;;;;1.20;99.90;;;;;;5018946;28;20318;-89
2022/02/25 06:47:02;;;;;;;;;;;1.30;99.90;;;;;;5017338;28;19921;-87
2022/02/25 06:49:27;;;;;;;;;;;1.30;99.90;;;;;;5017574;28;19943;-86
2022/02/25 06:51:53;;;;;;;;;;;1.30;99.90;;;;;;5017661;28;19921;-87
2022/02/25 06:54:19;;;;;;;;;;;1.30;99.90;;;;;;5017651;28;19913;-86
2022/02/25 06:56:44;;;;;;;;;;;1.30;99.90;;;;;;4999697;28;19917;-88
2022/02/25 06:59:10;;;;;;;;;;;1.30;99.90;;;;;;5016205;28;20424;-86
2022/02/25 07:01:37;;;;;;;;;;;1.30;99.90;;;;;;5017622;28;19913;-86
2022/02/25 07:04:04;;;;;;;;;;;1.30;99.90;;;;;;5001376;28;19925;-86
2022/02/25 07:06:29;;;;;;;;;;;1.30;99.90;;;;;;5013751;28;20342;-86
2022/02/25 07:08:55;;;;;;;;;;;1.30;99.90;;;;;;5014858;28;19914;-86
2022/02/25 07:11:21;;;;;;;;;;;1.30;99.90;;;;;;5032388;28;20302;-86
2022/02/25 07:13:47;;;;;;;;;;;1.30;99.90;;;;;;5017241;28;19913;-86
2022/02/25 07:16:13;;;;;;;;;;;1.30;99.90;;;;;;5033189;28;20486;-87
2022/02/25 07:18:38;;;;;;;;;;;1.30;99.90;;;;;;5016517;28;19917;-87
2022/02/25 07:21:04;;;;;;;;;;;1.30;99.90;;;;;;5000133;28;20035;-86
2022/02/25 07:23:29;;;;;;;;;;;1.40;99.90;;;;;;5030554;28;19917;-88
2022/02/25 07:25:55;;;;;;;;;;;1.40;99.90;;;;;;5013728;28;19964;-83
2022/02/25 07:28:20;;;;;;;;;;;1.50;99.90;;;;;;4997113;28;19970;-87
2022/02/25 07:30:46;;;;;;;;;;;1.50;99.90;;;;;;5016830;28;19962;-87
2022/02/25 07:33:12;;;;;;;;;;;1.50;99.90;;;;;;5016983;28;20338;-87
2022/02/25 07:35:38;;;;;;;;;;;1.60;99.90;;;;;;5016732;28;19932;-89
2022/02/25 07:38:03;;;;;;;;;;;1.60;99.90;;;;;;5017068;28;19921;-87
2022/02/25 07:40:29;;;;;;;;;;;1.60;99.90;;;;;;5016805;28;19917;-87
2022/02/25 07:42:55;;;;;;;;;;;1.60;99.90;;;;;;5016310;28;20359;-88
2022/02/25 07:45:21;;;;;;;;;;;1.60;99.90;;;;;;5016671;28;19916;-88
2022/02/25 07:47:46;;;;;;;;;;;1.60;99.90;;;;;;5016896;28;19923;-88
2022/02/25 07:50:13;;;;;;;;;;;1.60;99.90;;;;;;5013118;28;19940;-90
2022/02/25 07:52:39;;;;;;;;;;;1.60;99.90;;;;;;4997793;28;20099;-88
2022/02/25 07:55:05;;;;;;;;;;;1.70;99.90;;;;;;5011612;28;20014;-89
2022/02/25 07:57:31;;;;;;;;;;;1.60;99.90;;;;;;4994832;28;19918;-90
2022/02/25 07:59:56;;;;;;;;;;;1.60;99.90;;;;;;4994282;28;20419;-87
2022/02/25 08:02:22;;;;;;;;;;;1.70;99.90;;;;;;5011526;28;20004;-89
2022/02/25 08:04:47;;;;;;;;;;;1.70;99.90;;;;;;5011206;28;19913;-88
2022/02/25 08:07:13;;;;;;;;;;;1.70;99.90;;;;;;4994674;28;19933;-90
2022/02/25 08:09:39;;;;;;;;;;;1.80;99.90;;;;;;5009799;28;19941;-90
2022/02/25 08:12:04;;;;;;;;;;;1.90;99.90;;;;;;5010058;28;19928;-90
2022/02/25 08:14:35;;;;;;;;;;;1.90;99.90;;;;;;5010649;28;19920;-92
2022/02/25 08:17:01;;;;;;;;;;;2.00;99.90;;;;;;5011951;28;19913;-89
2022/02/25 08:19:26;;;;;;;;;;;2.00;99.90;;;;;;5011279;28;20592;-89
2022/02/25 08:21:52;;;;;;;;;;;2.10;99.90;;;;;;5011161;28;19913;-91
2022/02/25 08:24:18;;;;;;;;;;;2.10;99.90;;;;;;5013007;28;19947;-91
2022/02/25 08:26:44;;;;;;;;;;;2.20;99.90;;;;;;5012119;28;19972;-89
2022/02/25 08:29:10;;;;;;;;;;;2.20;99.90;;;;;;5011271;28;19914;-90
2022/02/25 08:31:35;;;;;;;;;;;2.30;99.90;;;;;;5010945;28;19920;-89
2022/02/25 08:34:02;;;;;;;;;;;2.30;99.90;;;;;;4994488;28;20012;-89
2022/02/25 08:36:28;;;;;;;;;;;2.30;99.90;;;;;;5011305;28;19918;-90
2022/02/25 08:38:54;;;;;;;;;;;2.30;99.90;;;;;;4992784;28;19921;-89
2022/02/25 08:41:19;;;;;;;;;;;2.30;99.90;;;;;;5008917;28;20568;-87
2022/02/25 08:43:47;;;;;;;;;;;2.30;99.90;;;;;;5012385;28;19944;-89
2022/02/25 08:46:13;;;;;;;;;;;2.40;99.90;;;;;;4995125;28;20299;-89
2022/02/25 08:48:42;;;;;;;;;;;2.40;99.90;;;;;;5012669;28;20008;-91
2022/02/25 08:51:16;;;;;;;;;;;2.50;99.90;;;;;;4998403;28;19928;-90
2022/02/25 08:53:44;;;;;;;;;;;2.50;99.90;;;;;;4996721;28;20295;-88
2022/02/25 08:56:10;;;;;;;;;;;2.50;99.90;;;;;;5012744;28;19921;-89
2022/02/25 08:58:36;;;;;;;;;;;2.60;99.90;;;;;;4996323;28;19953;-90
2022/02/25 09:01:02;;;;;;;;;;;2.70;99.90;;;;;;5012688;28;20392;-89
2022/02/25 09:03:28;;;;;;;;;;;2.80;99.90;;;;;;5012258;28;19913;-90
2022/02/25 09:05:53;;;;;;;;;;;2.90;99.90;;;;;;5012280;28;19940;-89
2022/02/25 09:08:19;;;;;;;;;;;3.00;99.90;;;;;;5031383;28;21073;-89
2022/02/25 09:10:47;;;;;;;;;;;3.00;99.90;;;;;;5015563;28;19910;-90
2022/02/25 09:13:13;;;;;;;;;;;3.00;99.90;;;;;;5015422;28;19913;-89
2022/02/25 09:15:38;;;;;;;;;;;3.00;99.90;;;;;;5015291;28;19924;-90
2022/02/25 09:18:10;;;;;;;;;;;2.90;99.90;;;;;;5012197;28;19914;-90
2022/02/25 09:20:38;;;;;;;;;;;2.90;99.90;;;;;;5012840;28;19955;-90
2022/02/25 09:23:05;;;;;;;;;;;2.90;99.90;;;;;;5012896;28;20299;-88
2022/02/25 09:25:30;;;;;;;;;;;2.90;99.90;;;;;;5029973;28;19917;-90
2022/02/25 09:27:57;;;;;;;;;;;2.90;99.90;;;;;;5016972;28;20017;-88
2022/02/25 09:30:24;;;;;;;;;;;2.80;99.90;;;;;;5027714;28;20320;-89
2022/02/25 09:32:50;;;;;;;;;;;2.90;99.90;;;;;;5006594;28;19914;-87
2022/02/25 09:35:18;;;;;;;;;;;2.90;99.90;;;;;;5006880;28;20435;-90
2022/02/25 09:37:45;;;;;;;;;;;3.00;99.90;;;;;;5008664;28;20021;-88
2022/02/25 09:40:12;;;;;;;;;;;3.10;99.90;;;;;;5014188;28;19912;-88
2022/02/25 09:42:38;;;;;;;;;;;3.20;99.90;;;;;;5015217;28;19939;-87
2022/02/25 09:45:05;;;;;;;;;;;3.40;99.90;;;;;;5013623;28;19928;-91
2022/02/25 09:47:31;;;;;;;;;;;3.50;99.90;;;;;;5011908;28;19913;-91
2022/02/25 09:49:59;;;;;;;;;;;3.60;99.90;;;;;;5011434;28;20002;-88
2022/02/25 09:52:25;;;;;;;;;;;3.80;99.90;;;;;;5011281;28;20427;-88
2022/02/25 09:54:51;;;;;;;;;;;3.90;99.90;;;;;;5023240;28;19914;-89
2022/02/25 09:57:17;;;;;;;;;;;4.00;99.90;;;;;;5010483;28;19913;-89
2022/02/25 09:59:52;;;;;;;;;;;4.10;99.90;;;;;;5012708;28;19940;-91
2022/02/25 10:02:19;;;;;;;;;;;4.10;99.90;;;;;;5012333;28;19935;-88
2022/02/25 10:04:45;;;;;;;;;;;4.20;99.90;;;;;;5012733;28;20403;-90
2022/02/25 10:07:27;;;;;;;;;;;4.20;99.90;;;;;;5011547;28;19914;-91
2022/02/25 10:09:53;;;;;;;;;;;4.30;99.90;;;;;;5033333;28;19924;-87
2022/02/25 10:12:19;;;;;;;;;;;4.30;99.90;;;;;;5011227;28;19919;-87
2022/02/25 10:14:48;;;;;;;;;;;4.40;99.90;;;;;;5022104;28;19913;-90
2022/02/25 10:17:21;;;;;;;;;;;4.40;99.90;;;;;;5012781;28;19956;-87
2022/02/25 10:19:49;;;;;;;;;;;4.50;99.90;;;;;;5010631;28;19953;-89
2022/02/25 10:22:20;;;;;;;;;;;4.60;99.90;;;;;;5027323;28;19920;-87
2022/02/25 10:24:47;;;;;;;;;;;4.80;99.90;;;;;;5024691;28;19913;-87
2022/02/25 10:27:17;;;;;;;;;;;5.00;99.90;;;;;;5012142;28;20364;-88
2022/02/25 10:29:57;;;;;;;;;;;5.20;99.90;;;;;;5010824;28;20626;-87
2022/02/25 10:32:28;;;;;;;;;;;5.40;99.90;;;;;;5024391;28;20007;-88
2022/02/25 10:34:54;;;;;;;;;;;5.50;99.90;;;;;;5048905;28;20378;-86
2022/02/25 10:37:20;;;;;;;;;;;5.70;99.90;;;;;;5032082;28;19917;-90
2022/02/25 10:39:47;;;;;;;;;;;5.80;99.90;;;;;;5011868;28;19924;-87
2022/02/25 10:42:18;;;;;;;;;;;5.70;99.90;;;;;;4996116;28;19959;-86
2022/02/25 10:44:45;;;;;;;;;;;5.60;99.90;;;;;;5011816;28;19923;-87
2022/02/25 10:47:14;;;;;;;;;;;5.50;99.90;;;;;;4996172;28;19917;-86
2022/02/25 10:49:40;;;;;;;;;;;5.40;99.90;;;;;;5010110;28;19913;-87
2022/02/25 10:52:26;;;;;;;;;;;5.30;99.90;;;;;;5012859;28;19967;-86
2022/02/25 10:54:52;;;;;;;;;;;5.30;99.90;;;;;;4985125;28;19913;-86
2022/02/25 10:57:19;;;;;;;;;;;5.10;99.90;;;;;;5011782;28;19917;-86
2022/02/25 10:59:46;;;;;;;;;;;5.00;99.90;;;;;;5012425;28;19956;-87
2022/02/25 11:02:22;;;;;;;;;;;4.80;99.90;;;;;;5030458;28;19917;-87
2022/02/25 11:04:59;;;;;;;;;;;4.70;99.90;;;;;;5035662;28;19913;-84
2022/02/25 11:07:28;;;;;;;;;;;4.50;99.90;;;;;;5030434;28;19961;-88
2022/02/25 11:09:54;;;;;;;;;;;4.40;99.90;;;;;;5039287;28;19924;-88
2022/02/25 11:12:19;;;;;;;;;;;4.30;99.90;;;;;;4999105;28;19909;-86
2022/02/25 11:14:46;;;;;;;;;;;4.30;99.90;;;;;;4998785;28;20295;-87
2022/02/25 11:17:12;;;;;;;;;;;4.30;99.90;;;;;;5015155;28;19936;-87
2022/02/25 11:19:39;;;;;;;;;;;4.30;99.90;;;;;;5013384;28;19924;-86
2022/02/25 11:22:06;;;;;;;;;;;4.30;99.90;;;;;;5012839;28;19917;-85
2022/02/25 11:24:37;;;;;;;;;;;4.30;99.90;;;;;;5016022;28;19919;-86
2022/02/25 11:27:06;;;;;;;;;;;4.30;99.90;;;;;;5033979;28;20372;-85
2022/02/25 11:29:34;;;;;;;;;;;4.40;99.90;;;;;;5018562;28;20363;-85
2022/02/25 11:32:01;;;;;;;;;;;4.40;99.90;;;;;;5014765;28;19917;-86
2022/02/25 11:34:27;;;;;;;;;;;4.40;99.90;;;;;;5015590;28;19948;-87
2022/02/25 11:36:52;;;;;;;;;;;4.40;99.90;;;;;;5011426;28;19944;-85
2022/02/25 11:39:18;;;;;;;;;;;4.40;99.90;;;;;;4995372;28;19917;-85
2022/02/25 11:41:47;;;;;;;;;;;4.50;99.90;;;;;;5012564;28;19918;-87
2022/02/25 11:44:14;;;;;;;;;;;4.50;99.90;;;;;;5012333;28;19975;-85
2022/02/25 11:46:41;;;;;;;;;;;4.60;99.90;;;;;;5011668;28;19918;-87
2022/02/25 11:49:07;;;;;;;;;;;4.60;99.90;;;;;;5011930;28;19919;-84
2022/02/25 11:51:34;;;;;;;;;;;4.70;99.90;;;;;;4995503;28;19996;-85
2022/02/25 11:54:19;;;;;;;;;;;4.90;99.90;;;;;;5011670;28;20008;-87
2022/02/25 11:56:57;;;;;;;;;;;5.00;99.90;;;;;;5011813;28;19913;-87
2022/02/25 11:59:22;;;;;;;;;;;5.00;99.90;;;;;;5010243;28;19991;-88
2022/02/25 12:02:08;;;;;;;;;;;5.00;99.90;;;;;;4995294;28;20368;-86
2022/02/25 12:04:39;;;;;;;;;;;5.10;99.90;;;;;;5011875;28;20372;-85
2022/02/25 12:07:17;;;;;;;;;;;5.00;99.90;;;;;;4995829;28;20020;-93
2022/02/25 12:09:44;;;;;;;;;;;5.00;99.90;;;;;;5010976;28;19914;-88
2022/02/25 12:12:22;;;;;;;;;;;5.10;99.90;;;;;;5011854;28;19917;-85
2022/02/25 12:15:07;;;;;;;;;;;5.20;99.90;;;;;;5009139;28;19913;-87
2022/02/25 12:17:41;;;;;;;;;;;5.30;99.90;;;;;;5014019;28;19963;-91
2022/02/25 12:20:07;;;;;;;;;;;5.40;99.90;;;;;;5028978;28;19913;-86
2022/02/25 12:22:51;;;;;;;;;;;5.50;99.90;;;;;;5028752;28;20714;-85
2022/02/25 12:25:36;;;;;;;;;;;5.50;99.90;;;;;;5014631;28;19956;-87
2022/02/25 12:28:04;;;;;;;;;;;5.40;99.90;;;;;;5013201;28;20390;-91
2022/02/25 12:30:37;;;;;;;;;;;5.40;99.90;;;;;;4998158;28;19924;-86
2022/02/25 12:33:22;;;;;;;;;;;5.30;99.90;;;;;;5014236;28;19924;-87
2022/02/25 12:35:48;;;;;;;;;;;5.30;99.90;;;;;;5013671;28;19925;-89
2022/02/25 12:38:17;;;;;;;;;;;5.30;99.90;;;;;;5012113;28;19909;-90
2022/02/25 12:40:50;;;;;;;;;;;5.20;99.90;;;;;;5038671;28;19940;-88
2022/02/25 12:43:17;;;;;;;;;;;5.20;99.90;;;;;;5010286;28;20379;-88
2022/02/25 12:45:44;;;;;;;;;;;5.30;99.90;;;;;;5028435;28;20446;-88
2022/02/25 12:48:10;;;;;;;;;;;5.30;99.90;;;;;;5029082;28;19948;-86
2022/02/25 12:50:40;;;;;;;;;;;5.40;99.90;;;;;;5047080;28;19913;-88
2022/02/25 12:53:06;;;;;;;;;;;5.40;99.90;;;;;;5033875;28;19913;-85
2022/02/25 12:55:31;;;;;;;;;;;5.40;99.90;;;;;;5032462;28;19976;-85
2022/02/25 12:57:57;;;;;;;;;;;5.40;99.90;;;;;;5030919;28;19927;-88
2022/02/25 13:00:23;;;;;;;;;;;5.50;99.90;;;;;;5012645;28;19917;-87
2022/02/25 13:02:55;;;;;;;;;;;5.50;99.90;;;;;;5021275;28;19920;-89
2022/02/25 13:05:21;;;;;;;;;;;5.60;99.90;;;;;;5010211;28;20388;-90
2022/02/25 13:07:56;;;;;;;;;;;5.70;99.90;;;;;;5021479;28;19944;-89
2022/02/25 13:10:26;;;;;;;;;;;5.70;99.90;;;;;;5014350;28;19914;-87
2022/02/25 13:12:53;;;;;;;;;;;5.70;99.90;;;;;;5020050;28;19913;-88
2022/02/25 13:15:25;;;;;;;;;;;5.70;99.90;;;;;;4997149;28;20080;-90
2022/02/25 13:17:51;;;;;;;;;;;5.60;99.90;;;;;;5012477;28;19970;-88
2022/02/25 13:20:18;;;;;;;;;;;5.60;99.90;;;;;;5011558;28;19918;-89
2022/02/25 13:22:44;;;;;;;;;;;5.70;99.90;;;;;;5008386;28;20414;-87
2022/02/25 13:25:22;;;;;;;;;;;5.70;99.90;;;;;;5009257;28;19924;-88
2022/02/25 13:27:49;;;;;;;;;;;5.60;99.90;;;;;;5010091;28;20011;-87
2022/02/25 13:30:20;;;;;;;;;;;5.60;99.90;;;;;;5010430;28;19935;-87
2022/02/25 13:32:51;;;;;;;;;;;5.60;99.90;;;;;;5009587;28;20063;-87
2022/02/25 13:35:18;;;;;;;;;;;5.60;99.90;;;;;;5009553;28;19917;-87
2022/02/25 13:37:48;;;;;;;;;;;5.70;99.90;;;;;;5009039;28;19921;-90
2022/02/25 13:40:43;;;;;;;;;;;5.80;99.90;;;;;;5007267;28;19918;-89
2022/02/25 13:43:23;;;;;;;;;;;5.80;99.90;;;;;;5007863;28;19920;-87
2022/02/25 13:45:50;;;;;;;;;;;5.90;99.90;;;;;;5031067;28;19975;-87
2022/02/25 13:53:51;;;;;;;;;;;5.60;99.90;;;;;;5010177;28;19943;-87
2022/02/25 13:56:17;;;;;;;;;;;5.50;99.90;;;;;;5027824;28;19909;-87
2022/02/25 13:58:43;;;;;;;;;;;5.50;99.90;;;;;;5002231;28;19925;-88
2022/02/25 14:01:16;;;;;;;;;;;5.50;99.90;;;;;;5013402;28;19917;-87
2022/02/25 14:03:43;;;;;;;;;;;5.50;99.90;;;;;;5011354;28;19959;-85
2022/02/25 14:06:21;;;;;;;;;;;5.40;99.90;;;;;;4995042;28;19921;-86
2022/02/25 14:08:47;;;;;;;;;;;5.50;99.90;;;;;;5009779;28;19971;-86
2022/02/25 14:11:27;;;;;;;;;;;5.40;99.90;;;;;;5015975;28;19920;-85
2022/02/25 14:13:53;;;;;;;;;;;5.40;99.90;;;;;;5019324;28;19921;-85
2022/02/25 14:16:28;;;;;;;;;;;5.30;99.90;;;;;;4995100;28;19917;-86
2022/02/25 14:19:14;;;;;;;;;;;5.40;99.90;;;;;;5038462;28;19913;-85
2022/02/25 14:21:40;;;;;;;;;;;5.20;99.90;;;;;;5006461;28;20027;-86
2022/02/25 14:24:26;;;;;;;;;;;5.10;99.90;;;;;;5019878;28;19967;-85
2022/02/25 14:27:24;;;;;;;;;;;4.90;99.90;;;;;;5008946;28;19928;-88
2022/02/25 14:30:00;;;;;;;;;;;4.70;99.90;;;;;;4975024;28;20424;-87
2022/02/25 14:32:26;;;;;;;;;;;4.30;99.90;;;;;;4996175;28;19924;-87
2022/02/25 14:34:51;;;;;;;;;;;4.00;99.90;;;;;;5012726;28;19917;-89
2022/02/25 14:37:29;;;;;;;;;;;3.70;99.90;;;;;;5030717;28;19936;-88
2022/02/25 14:39:56;;;;;;;;;;;3.50;99.90;;;;;;5013743;28;19946;-89
2022/02/25 14:42:21;;;;;;;;;;;3.30;99.90;;;;;;5013918;28;20493;-91
2022/02/25 14:44:48;;;;;;;;;;;3.10;99.90;;;;;;5011817;28;19920;-89